Aviation Digital Data Service (ADDS)

Output produced by METARs form (0251 UTC 18 June 2019)
found at http://www.aviationweather.gov/metar/data/
 
Forecast for: LFPO (PARIS/ORLY , FR)
Text: TAF LFPO 172300Z 1800/1906 VRB04KT CAVOK
Forecast period: 0000 to 1000 UTC 18 June 2019
Forecast type: FROM: standard forecast or significant change
Winds: variable direction winds at 5 MPH (4 knots; 2.1 m/s)
Visibility: 6 or more miles 10+ km)
Ceiling: unknown
Clouds: missing
Weather: NSW  (no significant weather)
Text: BECMG 1810/1812 14006KT
Forecast period: 1000 UTC 18 June 2019 to 0600 UTC 19 June 2019
Forecast type: BECOMING: Conditions expected to become as follows by 1200 UTC 18 June 2019
Winds: from the SE (140 degrees) at 7 MPH (6 knots; 3.1 m/s)
Visibility: 6 or more miles 10+ km)
Ceiling: unknown
Clouds: missing
Weather: NSW  (no significant weather)
Text: PROB40
Forecast period: 1900 UTC 18 June 2019 to 0300 UTC 19 June 2019
Forecast type: TEMPORARY: The following changes expected for less than half the time period
Winds: variable direction winds at 17 MPH (15 knots; 7.7 m/s)
gusting to 40 MPH (35 knots; 18.0 m/s)
Visibility: 2.49 miles (4.01 km)
Ceiling: 6000 feet AGL
Clouds: scattered clouds at 4000 feet AGL
broken clouds at 6000 feet AGL
Weather: TSRA  (rain associated with thunderstorm(s))